หน้าหลัก
METAR-TAF:

METAR-TAF

ท่าอากาศยาน :

เกาะแมน,

ละติจูด: 54-05N, ลองจิจูด: 004-38W, ความสูง: 17 ม.

การสังเกตสภาพอากาศปัจจุบัน

รายงานได้ทำขึ้นเมื่อ 48 นาทีที่แล้ว ณ เวลา 00:50 UTC
ลม 13 นอตจากเหนือ
อุณหภูมิ 12°C
ความชื้น 82%
ความกดอากาศ 1020 hPa
ทัศนวิสัย 10 กม. หรือมากกว่า
มีเมฆน้อยที่ความสูง 1200 ฟุต

METAR: EGNS 190050Z 35013KT 9999 FEW012 12/09 Q1020

เวลา: 02:38 (01:38 UTC)

การพยากรณ์

รายงานได้ทำขึ้นเมื่อ 7 ชั่วโมงและ 53 นาทีที่แล้ว ณ เวลา 17:45 UTC
การพยากรณ์มีผลตั้งแต่วันที่ 18 ณ เวลา 18 UTC จนถึงวันที่ 18 ณ เวลา 21 UTC
ลม 16 นอตจากเหนือ/ตะวันตกเฉียงเหนือ
ทัศนวิสัย 10 กม. หรือมากกว่า
มีเมฆน้อยที่ความสูง 1800 ฟุต
ความน่าจะเป็น 40% :
ชั่วคราว
ตั้งแต่วันที่ 18 ณ เวลา 18 UTC จนถึงวันที่ 18 ณ เวลา 21 UTC
ลม 17 นอตจากเหนือ/ตะวันตกเฉียงเหนือโดยมีลมกระโชกได้ถึง27 นอต

TAF: EGNS 181745Z 1818/1821 34016KT 9999 FEW018 PROB40 TEMPO 1818/1821 34017G27KT

สังเกตการณ์สภาพอากาศและพยากรณ์อากาศของสนามบินมากกว่า 4000 แห่ง (รายงาน METAR และ TAF).

สถานีที่ดูได้จะแสดงไว้ด้วยจุดสีเหลืองและสีแดงบนแผนที่.

เลื่อนเมาส์ไปเหนือจุดเพื่อดูชื่อสถานี.

แล้วคลิกเพื่อดูสังเกตการณ์และการพยากรณ์สภาพอากาศ.

ในการเปลี่ยนแผนที่: คลิกที่ปุ่มสีเขียวที่มีกากบาทสีดำเพื่อซูมเข้า; ที่ปุ่มสีเขียวที่มีขีดเพื่อซูมออก; หรือที่ลูกศรสีเขียวเพื่อไปยังแผนที่ที่อยู่ติดกัน.


METAR-TAF: